Bradford Regional Airport
KBFD : now visible

Airfield :











YOU CAN JOIN US ON...

 
LOGIN :

Register | Disclaimer

   EN    FR    IT 

 









Legend :    VFR   Marginal VFR   IFR   Intensive IFR   Very Intensive IFR
Visi :
Ceiling :
>= 8 km
>= 3000ft
5 to 8 km
1000 to 3000 ft
1500m to 5 km
500 to 1000 ft
800 to 1500m
200 to 500 ft
< 800m
< 200 ft
Symbols :   Thunderstorms  Fog  Heavy snow  Heavy precipitations  Wind > 20 kt






- Airport Elevation : 2143 ft
- IATA code : BFD


KBFD - Bradford Regional

CURRENT METAR :
  • 220253Z AUTO 26012KT 7SM -SN FEW023 BKN038 OVC060 02/M05 A2953 RMK AO2 SNB18 SLP015 P0000 60000 T00171050 53004

EXPIRED METARs :
  • 220153Z AUTO 26011G18KT 230V300 10SM BKN033 OVC046 02/M06 A2952 RMK AO2 SLP012 T00221056
  • 220053Z AUTO 25010G19KT 10SM SCT036 OVC046 03/M06 A2952 RMK AO2 SLP012 T00281061

TAF KBFD
Valid from the 22 at 00:00 until the 23 at 00:00 UTC


212320Z 2200/2224 26010KT P6SM OVC040
FM220300 27012G19KT 6SM -SHSN BR SCT010 OVC025
FM220900 28008G15KT 6SM -SHSN BR OVC015
FM221200 28011G18KT 4SM -SHSN BR OVC010
TEMPO 2212/2216 1SM -SHSN BR OVC008
KZOB FIR / North America



MET'MAP, your aeronautical weather chart ! - Copyright ORBIFLY December 2007 - Disclaimer

ORBIFLY MET'MAP TEAM :

Programming & Development : Alexandra Zaïnal
Concept & original design : Baudouin d'Aumeries
Assistance for programming : Marc-Olivier Méhu
Technical & hardware support : Manuel Goepfert

Contact : metmap@orbifly.com




SOURCES & CREDITS :

   NOAA       Earth
Advisory